Station: Whyalla

  Atmospheric Gas Attenuation - ITU Rec 676-11   --------------- db/100km ---------------
Date Time Temp RH % AH g/m3 Dew Point Wind Direction Speed kph Gust kph Barometer mB Rainfall Since 9am 24GHz 47GHz 76GHz 122GHz 134GHz 241GHz
17 01:50 4.4 96 6.27 3.8 9 11 1021.1 0 15.0 25.0 35.0 91.5 78.3 266.6
17 01:40 4.2 96 6.19 3.6 9 9 1021.1 0 14.8 25.0 34.8 90.8 77.4 263.4
17 01:30 4.4 96 6.27 3.8 9 11 1021.2 0 15.0 25.0 35.0 91.5 78.3 266.6
17 01:20 4.5 96 6.32 3.9 9 11 1021.3 0 15.1 25.1 35.2 92.0 78.9 268.7
17 01:10 4.6 96 6.36 4 11 11 1021.2 0 15.2 25.1 35.3 92.3 79.3 270.3
17 01:00 4.5 96 6.32 3.9 11 11 1021.4 0 15.1 25.1 35.2 92.0 78.9 268.8
17 00:50 4.8 96 6.44 4.2 9 11 1021.5 0 15.3 25.2 35.6 93.0 80.2 273.6
17 00:40 4.5 96 6.32 3.9 9 9 1021.6 0 15.1 25.1 35.2 92.0 78.9 268.8
17 00:30 4.7 96 6.4 4.1 9 11 1021.7 0 15.3 25.2 35.5 92.7 79.8 272.0
17 00:20 4.6 95 6.29 3.9 11 13 1021.8 0 15.0 25.0 35.1 91.6 78.4 267.1
17 00:10 4.9 95 6.42 4.2 11 11 1021.9 0 15.3 25.2 35.5 92.7 79.9 272.3
17 00:00 5.1 95 6.5 4.4 9 9 1022 0 15.5 25.3 35.7 93.3 80.8 275.5
16 23:50 5.2 95 6.55 4.5 9 9 1021.9 0 15.6 25.3 35.9 93.8 81.4 277.6
16 23:40 5.3 95 6.59 4.6 7 7 1021.9 0 15.6 25.4 36.0 94.1 81.8 279.1
16 23:30 5.4 95 6.63 4.7 9 9 1022 0 15.7 25.4 36.1 94.4 82.3 280.7
16 23:20 5.5 95 6.68 4.8 7 7 1022 0 15.8 25.5 36.3 94.9 82.9 282.8
16 23:10 5.6 95 6.72 4.9 9 11 1022.1 0 15.9 25.5 36.4 95.2 83.3 284.4
16 23:00 5.7 95 6.76 5 9 13 1022.1 0 16.0 25.5 36.5 95.5 83.8 286.0
16 22:50 5.8 95 6.81 5.1 11 13 1022.1 0 16.1 25.6 36.7 96.0 84.3 288.0
16 22:40 5.9 95 6.85 5.2 9 11 1022.3 0 16.2 25.6 36.8 96.3 84.8 289.7
16 22:30 5.8 94 6.74 4.9 9 11 1022.2 0 15.9 25.5 36.4 95.2 83.4 284.7
16 22:20 5.7 94 6.69 4.8 11 11 1022.2 0 15.8 25.4 36.3 94.8 82.8 282.6
16 22:10 5.6 93 6.58 4.6 11 11 1022.3 0 15.6 25.3 35.8 93.7 81.4 277.7
16 22:00 5.9 93 6.71 4.9 6 9 1022.3 0 15.9 25.4 36.2 94.7 82.9 282.9
16 21:50 5.6 92 6.51 4.4 7 7 1022.4 0 15.5 25.2 35.6 92.9 80.4 274.3
16 21:40 6 92 6.68 4.8 7 7 1022.4 0 15.8 25.3 36.1 94.3 82.4 281.1
16 21:30 7.2 93 7.3 6.1 6 7 1022.5 0 17.1 26.0 38.1 99.8 89.6 306.6
16 21:20 6.6 92 6.95 5.4 6 7 1022.5 0 16.4 25.6 36.9 96.6 85.4 291.9
16 21:10 6.7 92 6.99 5.5 6 7 1022.5 0 16.5 25.6 37.1 96.9 85.9 293.5
16 21:00 6.7 91 6.92 5.3 6 7 1022.7 0 16.3 25.5 36.8 96.2 84.9 290.2
16 20:50 7.3 92 7.27 6.1 7 7 1022.8 0 17.0 26.0 38.0 99.3 89.1 304.8
16 20:40 7.2 90 7.07 5.7 7 7 1022.7 0 16.6 25.6 37.2 97.2 86.4 295.5
16 20:30 7.5 91 7.29 6.1 6 7 1022.7 0 17.1 25.9 37.9 99.3 89.1 305.0
16 20:20 7.4 90 7.16 5.9 6 6 1022.8 0 16.8 25.7 37.4 98.0 87.4 299.1
16 20:10 7.7 89 7.22 6 0 6 1022.7 0 16.9 25.8 37.6 98.2 87.9 300.8
16 20:00 8.5 90 7.69 7 2 6 1022.7 0 17.9 26.3 39.1 102.5 93.4 320.3
16 19:50 7.7 87 7.06 5.7 6 6 1022.7 0 16.6 25.5 36.9 96.5 85.7 293.2
16 19:40 8.1 86 7.16 5.9 4 6 1022.7 0 16.8 25.5 37.1 97.1 86.6 296.4
16 19:30 8.9 85 7.45 6.5 6 7 1022.6 0 17.3 25.8 37.9 99.3 89.7 307.1
16 19:20 9.1 85 7.54 6.7 6 6 1022.7 0 17.5 25.9 38.2 100.0 90.7 310.7
16 19:10 9.5 84 7.65 6.9 6 6 1022.7 0 17.7 25.9 38.5 100.7 91.7 314.3
16 19:00 9.6 84 7.7 7 7 9 1022.6 0 17.8 26.0 38.6 101.1 92.2 316.3
16 18:50 9.6 84 7.7 7 6 7 1022.4 0 17.9 26.0 38.6 101.1 92.2 316.2
16 18:40 9.9 84 7.85 7.3 7 7 1022.4 0 18.2 26.2 39.1 102.4 93.9 322.2
16 18:30 9.9 83 7.75 7.2 9 9 1022.3 0 17.9 26.0 38.7 101.3 92.5 317.4
16 18:20 10.1 81 7.66 7 9 9 1022.3 0 17.7 25.8 38.2 100.0 91.1 312.3
16 18:10 10.5 79 7.66 7 6 6 1022.3 0 17.7 25.7 38.0 99.5 90.6 310.7
16 18:00 11.6 77 8 7.7 0 0 1022.2 0 18.4 25.9 38.9 101.8 93.9 322.2
16 17:50 12 76 8.1 7.9 0 0 1022.2 0 18.6 25.9 39.1 102.4 94.7 325.3
16 17:40 12.3 75 8.14 8 6 7 1022.2 0 18.7 25.9 39.1 102.4 94.9 325.9
16 17:30 12.5 73 8.03 7.8 7 9 1022.2 0 18.4 25.7 38.5 101.0 93.2 319.9
16 17:20 13 69 7.83 7.5 6 7 1022.2 0 18.0 25.2 37.5 98.2 90.0 308.7
16 17:10 13.3 66 7.63 7.1 7 9 1022.2 0 17.5 24.8 36.6 95.7 87.0 298.5
16 17:00 13.7 66 7.82 7.5 7 11 1022.3 0 17.9 25.0 37.1 97.2 89.0 305.6
16 16:50 14 66 7.96 7.8 9 9 1022.2 0 18.2 25.1 37.6 98.3 90.5 310.7
16 16:40 14.3 62 7.62 7.1 9 9 1022.2 0 17.5 24.5 36.1 94.4 85.8 294.3
16 16:30 14.7 59 7.43 6.8 9 13 1022.2 0 17.0 24.1 35.2 92.0 83.0 284.4
16 16:20 15.1 59 7.61 7.2 9 11 1022.2 0 17.4 24.3 35.7 93.4 84.8 290.9
16 16:10 15.1 57 7.35 6.7 11 11 1022.2 0 16.9 23.9 34.7 90.7 81.5 279.5
16 16:00 15.3 55 7.18 6.3 9 13 1022.3 0 16.5 23.6 34.0 88.8 79.2 271.5
16 15:50 15.3 53 6.92 5.8 9 11 1022.3 0 15.9 23.2 33.0 86.2 76.0 260.2
16 15:40 15.2 55 7.14 6.2 9 11 1022.2 0 16.4 23.6 33.9 88.5 78.8 270.0
16 15:30 15.1 54 6.97 5.9 9 13 1022.2 0 16.1 23.3 33.3 86.9 76.8 263.0
16 15:20 14.8 59 7.47 6.9 9 11 1022.3 0 17.1 24.2 35.3 92.3 83.4 285.9
16 15:10 14.1 63 7.65 7.2 13 15 1022.2 0 17.5 24.6 36.3 95.0 86.4 296.4
16 15:00 14.1 67 8.13 8.1 13 17 1022.3 0 18.6 25.4 38.2 100.0 92.6 318.1
16 14:50 14.1 66 8.01 7.9 15 17 1022.3 0 18.3 25.2 37.7 98.7 91.0 312.6
16 14:40 14.4 67 8.28 8.4 13 17 1022.3 0 18.9 25.5 38.6 101.2 94.2 323.7
16 14:30 14.5 62 7.71 7.3 13 15 1022.4 0 17.7 24.6 36.4 95.1 86.7 297.6
16 14:20 14.9 62 7.9 7.7 11 13 1022.5 0 18.0 24.8 36.9 96.6 88.7 304.6
16 14:10 14.5 58 7.21 6.3 13 15 1022.6 0 16.6 23.9 34.4 90.0 80.4 275.6
16 14:00 14.7 59 7.43 6.8 13 15 1022.7 0 17.0 24.1 35.2 92.1 83.0 284.5
16 13:50 14.6 60 7.51 6.9 11 13 1022.7 0 17.2 24.3 35.6 93.0 84.1 288.4
16 13:40 15 63 8.08 8 11 13 1022.8 0 18.4 25.1 37.6 98.4 90.9 312.4
16 13:30 14.9 60 7.65 7.2 11 15 1023 0 17.5 24.4 36.0 94.1 85.6 293.6
16 13:20 14.6 61 7.63 7.2 11 13 1023 0 17.5 24.5 36.0 94.2 85.7 293.8
16 13:10 15 63 8.08 8 11 13 1023.1 0 18.4 25.1 37.6 98.4 91.0 312.5
16 13:00 15 60 7.69 7.3 11 15 1023.3 0 17.6 24.5 36.1 94.4 86.0 295.1
16 12:50 15.3 61 7.97 7.8 13 17 1023.4 0 18.2 24.8 37.0 97.0 89.2 306.4
16 12:40 14.7 60 7.55 7 13 13 1023.6 0 17.3 24.4 35.7 93.4 84.6 290.1
16 12:30 14.8 60 7.6 7.1 11 17 1023.8 0 17.4 24.4 35.9 93.8 85.1 292.0
16 12:20 15.3 58 7.57 7.1 9 13 1023.9 0 17.3 24.2 35.5 92.9 84.2 288.8
16 12:10 14.9 59 7.52 7 11 13 1024.2 0 17.2 24.3 35.5 92.9 84.0 288.2
16 12:00 15.8 53 7.13 6.3 6 11 1024.3 0 16.4 23.5 33.7 88.0 78.3 268.1
16 11:50 16.2 49 6.76 5.5 2 6 1024.6 0 15.6 22.8 32.2 83.9 73.4 251.1
16 11:40 16.3 44 6.1 4 9 9 1024.9 0 14.2 21.8 29.8 77.5 65.5 223.4
16 11:30 16 49 6.68 5.3 2 6 1025 0 15.4 22.8 32.0 83.4 72.7 248.4
16 11:20 15 49 6.28 4.4 4 6 1025.1 0 14.6 22.4 30.9 80.5 68.7 234.5
16 11:10 14.9 48 6.12 4 0 0 1025.3 0 14.3 22.2 30.4 79.1 66.9 228.1
16 11:00 15.6 47 6.25 4.3 4 7 1025.4 0 14.5 22.2 30.6 79.7 67.9 231.6
16 10:50 15.2 49 6.36 4.6 4 6 1025.4 0 14.8 22.5 31.1 81.1 69.5 237.4
16 10:40 14.8 50 6.33 4.5 7 7 1025.5 0 14.7 22.6 31.2 81.2 69.5 237.3
16 10:30 14.2 52 6.35 4.5 7 9 1025.5 0 14.8 22.7 31.5 82.0 70.3 239.9
16 10:20 13.8 53 6.32 4.4 9 9 1025.6 0 14.7 22.8 31.5 82.2 70.3 239.9
16 10:10 13.5 53 6.2 4.1 9 11 1025.7 0 14.5 22.7 31.2 81.3 69.1 235.6
16 10:00 13 53 6.01 3.7 13 17 1025.7 0 14.1 22.5 30.7 79.9 67.2 228.9
16 09:50 12.6 53 5.86 3.3 13 15 1025.6 0 13.8 22.4 30.3 78.8 65.7 223.6
16 09:40 12.1 55 5.9 3.3 15 17 1025.5 0 13.9 22.6 30.6 79.7 66.6 226.7
16 09:30 11.8 59 6.21 4.1 13 17 1025.5 0 14.6 23.1 31.9 83.1 70.7 241.1
16 09:20 11.2 63 6.39 4.4 11 13 1025.4 0 15.0 23.6 32.8 85.6 73.5 250.8

Last Refresh: 17-Jul-2020 02:07:22

Most of the information presented on this site is sourced from the Bureau of Meteorology.  Copyright in all material sourced from the Bureau of Meteorology resides with the Commonwealth of Australia.